Time;durP1;ratioP1;P1;durP2;ratioP2;P2;SDS_P1;SDS_P2;PMS_P1;PMS_P2;Temp;Humidity;BMP_temperature;BMP_pressure;BME280_temperature;BME280_humidity;BME280_pressure;Samples;Min_cycle;Max_cycle;Signal;HPM_P1;HPM_P2
2022/08/05 00:01:15;;;;;;;3.45;1.80;;;32.60;31.60;;;;;;5071312;28;45625;-71
2022/08/05 00:03:42;;;;;;;2.13;1.83;;;32.60;31.70;;;;;;5089566;28;45217;-71
2022/08/05 00:06:09;;;;;;;2.78;1.70;;;32.60;31.80;;;;;;5089245;28;45133;-70
2022/08/05 00:08:36;;;;;;;2.00;1.80;;;32.60;31.70;;;;;;5089363;28;45289;-71
2022/08/05 00:11:05;;;;;;;2.25;2.05;;;32.50;31.60;;;;;;5089315;28;45531;-71
2022/08/05 00:13:33;;;;;;;2.17;2.00;;;32.50;31.60;;;;;;5081889;28;45247;-71
2022/08/05 00:16:00;;;;;;;1.80;1.70;;;32.50;31.80;;;;;;5089740;28;45246;-71
2022/08/05 00:18:28;;;;;;;1.92;1.70;;;32.50;31.70;;;;;;5089601;28;45392;-71
2022/08/05 00:20:55;;;;;;;2.10;2.00;;;32.40;31.70;;;;;;5089114;28;45370;-71
2022/08/05 00:23:22;;;;;;;2.08;1.90;;;32.40;31.80;;;;;;5088953;28;45269;-71
2022/08/05 00:25:49;;;;;;;1.90;1.80;;;32.40;31.70;;;;;;5089352;28;45139;-71
2022/08/05 00:28:16;;;;;;;2.30;2.10;;;32.40;31.80;;;;;;5089364;28;45286;-71
2022/08/05 00:30:43;;;;;;;2.13;1.92;;;32.40;31.80;;;;;;5086086;28;46333;-71
2022/08/05 00:33:10;;;;;;;2.88;1.92;;;32.40;31.90;;;;;;5088995;28;45320;-71
2022/08/05 00:35:38;;;;;;;2.10;1.90;;;32.40;32.00;;;;;;5089303;28;45257;-71
2022/08/05 00:38:05;;;;;;;2.05;1.85;;;32.30;31.90;;;;;;5087895;27;45256;-71
2022/08/05 00:40:32;;;;;;;1.90;1.70;;;32.30;31.90;;;;;;5105846;27;45403;-71
2022/08/05 00:43:00;;;;;;;1.95;1.85;;;32.30;31.90;;;;;;5109276;27;45233;-71
2022/08/05 00:45:27;;;;;;;3.03;2.05;;;32.30;32.00;;;;;;5109537;27;45280;-71
2022/08/05 00:47:54;;;;;;;2.33;2.13;;;32.20;32.00;;;;;;5091511;27;45409;-70
2022/08/05 00:50:21;;;;;;;1.65;1.55;;;32.20;32.00;;;;;;5067753;28;45194;-70
2022/08/05 00:52:49;;;;;;;2.10;2.00;;;32.20;31.90;;;;;;5086572;28;45261;-70
2022/08/05 00:55:16;;;;;;;2.15;1.77;;;32.10;32.00;;;;;;5087872;28;45241;-71
2022/08/05 00:57:43;;;;;;;2.15;1.98;;;32.10;32.10;;;;;;5086177;28;45191;-71
2022/08/05 01:00:11;;;;;;;1.83;1.73;;;32.10;32.00;;;;;;5088629;28;45478;-71
2022/08/05 01:02:38;;;;;;;1.88;1.77;;;32.10;32.10;;;;;;5088624;28;45432;-71
2022/08/05 01:05:05;;;;;;;2.25;2.05;;;32.10;32.10;;;;;;5088678;28;45302;-71
2022/08/05 01:07:32;;;;;;;2.08;1.80;;;32.10;32.20;;;;;;5088558;28;45488;-71
2022/08/05 01:10:00;;;;;;;1.92;1.83;;;32.10;32.30;;;;;;5088426;28;46441;-71
2022/08/05 01:12:27;;;;;;;1.65;1.55;;;32.10;32.30;;;;;;5088417;28;45380;-71
2022/08/05 01:14:57;;;;;;;2.00;1.90;;;32.00;32.20;;;;;;5088798;28;45242;-71
2022/08/05 01:17:26;;;;;;;1.90;1.80;;;32.00;32.20;;;;;;5088445;28;45194;-71
2022/08/05 01:19:55;;;;;;;1.70;1.60;;;32.00;32.20;;;;;;5087652;28;45469;-71
2022/08/05 01:22:29;;;;;;;1.65;1.55;;;32.00;32.30;;;;;;5087741;28;45224;-71
2022/08/05 01:25:44;;;;;;;1.90;1.77;;;31.90;32.30;;;;;;5087968;28;45345;-71
2022/08/05 01:28:16;;;;;;;1.73;1.63;;;31.90;32.40;;;;;;5025543;28;45440;-71
2022/08/05 01:30:46;;;;;;;2.03;1.92;;;31.90;32.40;;;;;;5017522;28;45378;-71
2022/08/05 01:33:13;;;;;;;1.63;1.50;;;31.90;32.50;;;;;;5054983;28;45183;-71
2022/08/05 01:35:40;;;;;;;1.77;1.52;;;31.90;32.50;;;;;;5069905;28;45293;-71
2022/08/05 01:38:07;;;;;;;1.70;1.60;;;31.90;32.50;;;;;;5088158;28;45264;-71
2022/08/05 01:40:34;;;;;;;2.08;1.98;;;31.90;32.60;;;;;;5087527;28;46384;-71
2022/08/05 01:43:02;;;;;;;2.00;1.90;;;31.80;32.50;;;;;;5087880;28;45436;-71
2022/08/05 01:45:31;;;;;;;2.03;1.92;;;31.80;32.50;;;;;;5087983;28;45218;-71
2022/08/05 01:47:59;;;;;;;2.40;1.70;;;31.80;32.60;;;;;;5088250;28;45382;-71
2022/08/05 01:50:28;;;;;;;3.20;1.88;;;31.80;32.60;;;;;;5046698;28;46700;-71
2022/08/05 01:52:55;;;;;;;1.83;1.70;;;31.70;32.60;;;;;;5047576;28;45211;-71
2022/08/05 01:55:23;;;;;;;1.80;1.70;;;31.70;32.60;;;;;;5047337;28;45239;-70
2022/08/05 01:57:51;;;;;;;1.95;1.80;;;31.70;32.70;;;;;;5047337;28;45231;-71
2022/08/05 02:00:18;;;;;;;1.88;1.77;;;31.70;32.70;;;;;;5046916;28;45463;-70
2022/08/05 02:02:50;;;;;;;1.77;1.67;;;31.70;32.70;;;;;;5047309;28;45187;-70
2022/08/05 02:05:17;;;;;;;2.45;1.58;;;31.70;32.90;;;;;;5047109;28;45232;-70
2022/08/05 02:07:44;;;;;;;1.80;1.70;;;31.70;32.80;;;;;;5046808;28;45139;-70
2022/08/05 02:10:11;;;;;;;1.52;1.42;;;31.70;32.90;;;;;;5046732;28;46359;-71
2022/08/05 02:12:42;;;;;;;1.70;1.60;;;31.60;32.90;;;;;;5054072;28;45301;-71
2022/08/05 02:15:12;;;;;;;2.08;1.80;;;31.60;33.00;;;;;;5067352;28;45197;-70
2022/08/05 02:17:41;;;;;;;1.60;1.50;;;31.60;32.90;;;;;;5067041;28;45404;-70
2022/08/05 02:20:14;;;;;;;1.67;1.58;;;31.60;33.20;;;;;;5066877;28;45538;-71
2022/08/05 02:22:43;;;;;;;1.80;1.70;;;31.50;33.00;;;;;;5064224;28;45330;-71
2022/08/05 02:25:14;;;;;;;1.52;1.42;;;31.50;33.00;;;;;;5066931;28;45198;-71
2022/08/05 02:27:41;;;;;;;1.88;1.73;;;31.50;33.00;;;;;;5067073;28;45300;-71
2022/08/05 02:30:09;;;;;;;1.75;1.65;;;31.50;33.60;;;;;;5070416;28;48648;-70
2022/08/05 02:32:36;;;;;;;2.42;1.70;;;31.50;33.10;;;;;;5087019;28;45210;-70
2022/08/05 02:35:04;;;;;;;2.08;1.90;;;31.50;32.90;;;;;;5087212;28;45259;-70
2022/08/05 02:37:32;;;;;;;2.00;1.80;;;31.50;33.20;;;;;;5084585;28;45359;-71
2022/08/05 02:39:59;;;;;;;1.70;1.60;;;31.50;33.00;;;;;;5099120;27;46709;-70
2022/08/05 02:42:26;;;;;;;1.75;1.65;;;31.40;33.10;;;;;;5107503;27;45182;-70
2022/08/05 02:44:53;;;;;;;1.52;1.42;;;31.40;33.10;;;;;;5107522;27;45379;-70
2022/08/05 02:47:20;;;;;;;1.70;1.60;;;31.40;33.30;;;;;;5106663;27;45505;-71
2022/08/05 02:49:46;;;;;;;1.70;1.60;;;31.40;33.20;;;;;;5091690;27;46487;-70
2022/08/05 02:52:15;;;;;;;1.60;1.50;;;31.40;33.30;;;;;;5068211;28;45242;-71
2022/08/05 02:54:44;;;;;;;2.10;1.58;;;31.40;33.30;;;;;;5086323;28;45210;-71
2022/08/05 02:57:14;;;;;;;1.70;1.60;;;31.40;33.40;;;;;;5086661;28;45387;-71
2022/08/05 02:59:42;;;;;;;2.78;1.60;;;31.30;33.30;;;;;;5085683;28;45363;-70
2022/08/05 03:02:09;;;;;;;1.65;1.55;;;31.30;33.40;;;;;;5085418;28;45309;-71
2022/08/05 03:04:36;;;;;;;1.90;1.70;;;31.30;33.40;;;;;;5086371;28;45279;-71
2022/08/05 03:07:03;;;;;;;1.80;1.70;;;31.30;33.40;;;;;;5086582;28;45225;-71
2022/08/05 03:09:30;;;;;;;1.65;1.55;;;31.20;33.30;;;;;;5086384;28;45406;-71
2022/08/05 03:11:58;;;;;;;1.60;1.50;;;31.20;33.40;;;;;;5086208;28;45264;-70
2022/08/05 03:14:25;;;;;;;1.73;1.63;;;31.20;33.50;;;;;;5086632;28;45249;-71
2022/08/05 03:16:52;;;;;;;1.90;1.80;;;31.20;33.50;;;;;;5086556;28;45310;-70
2022/08/05 03:19:19;;;;;;;1.17;1.17;;;31.20;33.50;;;;;;5086326;28;46352;-70
2022/08/05 03:21:45;;;;;;;1.83;1.73;;;31.20;33.60;;;;;;5086100;28;45187;-70
2022/08/05 03:24:12;;;;;;;1.80;1.70;;;31.10;33.40;;;;;;5086405;28;45142;-71
2022/08/05 03:26:39;;;;;;;1.50;1.40;;;31.10;33.50;;;;;;5086478;28;45364;-71
2022/08/05 03:29:07;;;;;;;1.60;1.50;;;31.10;33.50;;;;;;5090298;27;45590;-71
2022/08/05 03:31:34;;;;;;;1.50;1.40;;;31.10;33.60;;;;;;5102349;27;45251;-71
2022/08/05 03:34:01;;;;;;;1.60;1.50;;;31.10;33.50;;;;;;5103958;27;45257;-71
2022/08/05 03:36:27;;;;;;;1.60;1.50;;;31.10;33.60;;;;;;5106781;27;45134;-70
2022/08/05 03:38:54;;;;;;;1.77;1.67;;;31.10;33.50;;;;;;5105916;27;46403;-71
2022/08/05 03:41:21;;;;;;;1.25;1.17;;;31.00;33.40;;;;;;5106622;27;45323;-71
2022/08/05 03:43:48;;;;;;;1.48;1.38;;;31.00;33.50;;;;;;5103750;27;45327;-71
2022/08/05 03:46:16;;;;;;;2.10;1.90;;;31.00;33.50;;;;;;5106562;27;45420;-71
2022/08/05 03:48:43;;;;;;;1.60;1.50;;;31.00;33.60;;;;;;5100081;27;45278;-70
2022/08/05 03:51:13;;;;;;;1.70;1.60;;;31.00;33.60;;;;;;5085441;28;45249;-70
2022/08/05 03:53:41;;;;;;;2.40;1.55;;;31.00;33.50;;;;;;5085361;28;45267;-70
2022/08/05 03:56:11;;;;;;;2.00;1.48;;;31.00;33.70;;;;;;5086059;28;45408;-70
2022/08/05 03:58:38;;;;;;;1.40;1.40;;;31.00;33.60;;;;;;5085514;28;45326;-70
2022/08/05 04:01:06;;;;;;;1.48;1.38;;;30.90;33.60;;;;;;5085808;28;45229;-70
2022/08/05 04:03:36;;;;;;;1.77;1.67;;;30.90;33.60;;;;;;5086246;28;45123;-70
2022/08/05 04:06:03;;;;;;;1.67;1.50;;;30.90;33.60;;;;;;5085871;28;45333;-70
2022/08/05 04:08:30;;;;;;;1.60;1.50;;;30.90;33.70;;;;;;5085481;28;46338;-70
2022/08/05 04:10:57;;;;;;;1.55;1.45;;;30.90;33.70;;;;;;5085454;28;45245;-70
2022/08/05 04:13:24;;;;;;;1.88;1.77;;;30.90;33.70;;;;;;5085632;28;45160;-70
2022/08/05 04:15:51;;;;;;;1.60;1.50;;;30.90;33.70;;;;;;5089268;28;45373;-70
2022/08/05 04:18:17;;;;;;;2.15;1.73;;;30.90;33.80;;;;;;5088795;28;46712;-71
2022/08/05 04:20:46;;;;;;;1.35;1.35;;;30.80;33.70;;;;;;5089125;28;45305;-70
2022/08/05 04:23:13;;;;;;;1.67;1.58;;;30.80;33.70;;;;;;5089097;28;45133;-70
2022/08/05 04:25:39;;;;;;;1.60;1.50;;;30.80;33.90;;;;;;5089291;28;45119;-70
2022/08/05 04:28:06;;;;;;;1.73;1.63;;;30.80;33.90;;;;;;5088729;28;46422;-70
2022/08/05 04:30:33;;;;;;;1.65;1.30;;;30.80;33.70;;;;;;5104574;27;45253;-70
2022/08/05 04:33:00;;;;;;;1.75;1.65;;;30.70;33.70;;;;;;5109307;27;45190;-70
2022/08/05 04:35:27;;;;;;;1.75;1.65;;;30.70;33.80;;;;;;5109384;27;45394;-70
2022/08/05 04:37:55;;;;;;;1.75;1.48;;;30.70;33.90;;;;;;5108734;27;46767;-70
2022/08/05 04:40:22;;;;;;;1.55;1.45;;;30.70;33.80;;;;;;5108385;27;45253;-70
2022/08/05 04:42:48;;;;;;;1.60;1.50;;;30.70;34.00;;;;;;5109051;27;45352;-70
2022/08/05 04:45:15;;;;;;;1.70;1.60;;;30.70;33.90;;;;;;5109392;27;45166;-70
2022/08/05 04:47:42;;;;;;;1.80;1.70;;;30.70;34.00;;;;;;5108749;27;45644;-70
2022/08/05 04:50:10;;;;;;;1.60;1.50;;;30.70;34.10;;;;;;5090763;27;45261;-71
2022/08/05 04:52:36;;;;;;;1.80;1.42;;;30.70;34.20;;;;;;5088484;28;45348;-71
2022/08/05 04:55:05;;;;;;;1.60;1.50;;;30.70;34.30;;;;;;5088663;28;45261;-70
2022/08/05 04:57:32;;;;;;;1.88;1.77;;;30.60;34.10;;;;;;5088182;28;46420;-70
2022/08/05 04:59:59;;;;;;;1.90;1.70;;;30.60;34.40;;;;;;5088274;28;45242;-71
2022/08/05 05:02:26;;;;;;;1.70;1.60;;;30.60;34.30;;;;;;5088390;28;45296;-71
2022/08/05 05:04:53;;;;;;;2.10;1.90;;;30.60;34.30;;;;;;5088506;28;45266;-71
2022/08/05 05:07:20;;;;;;;1.60;1.50;;;30.60;34.50;;;;;;5088044;28;46409;-71
2022/08/05 05:09:46;;;;;;;1.52;1.42;;;30.60;34.50;;;;;;5088180;28;45221;-71
2022/08/05 05:12:15;;;;;;;2.60;1.50;;;30.60;34.50;;;;;;5088140;28;45251;-71
2022/08/05 05:14:41;;;;;;;1.60;1.50;;;30.60;34.40;;;;;;5088306;28;45329;-71
2022/08/05 05:17:08;;;;;;;2.85;1.80;;;30.60;34.50;;;;;;5087781;28;47324;-70
2022/08/05 05:19:35;;;;;;;1.58;1.48;;;30.60;34.50;;;;;;5087815;28;45358;-70
2022/08/05 05:22:02;;;;;;;1.80;1.70;;;30.60;34.50;;;;;;5087997;28;45297;-70
2022/08/05 05:24:28;;;;;;;2.58;1.70;;;30.50;34.60;;;;;;5086823;27;45173;-70
2022/08/05 05:26:55;;;;;;;1.65;1.55;;;30.50;34.60;;;;;;5087611;28;45409;-71
2022/08/05 05:29:23;;;;;;;1.70;1.60;;;30.50;34.70;;;;;;5083010;28;45458;-71
2022/08/05 05:31:50;;;;;;;1.73;1.63;;;30.50;34.80;;;;;;5085909;28;45321;-71
2022/08/05 05:34:17;;;;;;;1.65;1.55;;;30.50;34.90;;;;;;5088130;28;45365;-70
2022/08/05 05:36:44;;;;;;;2.85;1.50;;;30.50;34.90;;;;;;5087556;28;45358;-71
2022/08/05 05:39:11;;;;;;;1.92;1.50;;;30.50;34.90;;;;;;5081737;28;45258;-70
2022/08/05 05:41:37;;;;;;;1.65;1.55;;;30.50;34.90;;;;;;5067628;28;45419;-71
2022/08/05 05:44:04;;;;;;;2.40;1.88;;;30.50;35.00;;;;;;5067557;28;45393;-71
2022/08/05 05:46:33;;;;;;;1.90;1.60;;;30.50;35.70;;;;;;5067057;28;46314;-71
2022/08/05 05:48:59;;;;;;;1.70;1.60;;;30.40;35.30;;;;;;5067233;28;45181;-71
2022/08/05 05:51:26;;;;;;;1.95;1.60;;;30.40;35.20;;;;;;5064717;28;45369;-71
2022/08/05 05:53:54;;;;;;;1.75;1.50;;;30.40;35.30;;;;;;5067277;28;45392;-71
2022/08/05 05:56:21;;;;;;;3.65;1.65;;;30.40;35.30;;;;;;5067076;28;45266;-71
2022/08/05 05:58:48;;;;;;;1.65;1.42;;;30.40;35.30;;;;;;5066812;28;45199;-71
2022/08/05 06:01:15;;;;;;;1.70;1.60;;;30.40;35.40;;;;;;5067176;28;45186;-71
2022/08/05 06:03:43;;;;;;;2.13;1.75;;;30.40;35.40;;;;;;5067066;28;45250;-71
2022/08/05 06:06:10;;;;;;;1.70;1.60;;;30.40;35.30;;;;;;5066785;28;46628;-71
2022/08/05 06:08:37;;;;;;;1.70;1.52;;;30.40;35.50;;;;;;5066704;28;45159;-71
2022/08/05 06:11:03;;;;;;;1.55;1.45;;;30.40;35.50;;;;;;5066787;28;45175;-71
2022/08/05 06:13:30;;;;;;;1.70;1.60;;;30.40;35.50;;;;;;5066681;28;45190;-71
2022/08/05 06:15:57;;;;;;;1.90;1.70;;;30.40;35.50;;;;;;5066571;28;45501;-71
2022/08/05 06:18:24;;;;;;;1.95;1.70;;;30.40;35.50;;;;;;5066776;28;45369;-71
2022/08/05 06:20:52;;;;;;;1.50;1.40;;;30.40;35.50;;;;;;5066948;28;45309;-71
2022/08/05 06:23:19;;;;;;;1.73;1.63;;;30.40;35.50;;;;;;5066872;28;45132;-71
2022/08/05 06:25:46;;;;;;;1.67;1.58;;;30.40;35.50;;;;;;5066357;28;46402;-71
2022/08/05 06:28:12;;;;;;;1.90;1.50;;;30.40;35.60;;;;;;5066288;28;45308;-71
2022/08/05 06:30:39;;;;;;;1.70;1.60;;;30.40;35.80;;;;;;5066571;28;45485;-71
2022/08/05 06:33:06;;;;;;;2.20;1.80;;;30.40;35.70;;;;;;5066750;28;45306;-71
2022/08/05 06:35:33;;;;;;;1.50;1.40;;;30.40;35.80;;;;;;5066283;28;46400;-71
2022/08/05 06:38:01;;;;;;;1.75;1.65;;;30.40;36.00;;;;;;5066486;28;45151;-71
2022/08/05 06:40:28;;;;;;;3.47;1.58;;;30.40;35.90;;;;;;5098982;27;45419;-71
2022/08/05 06:42:54;;;;;;;1.58;1.38;;;30.40;35.90;;;;;;5107461;27;45228;-71
2022/08/05 06:45:21;;;;;;;2.60;1.58;;;30.40;35.90;;;;;;5107028;27;45369;-71
2022/08/05 06:47:48;;;;;;;1.90;1.80;;;30.40;36.10;;;;;;5107035;27;45205;-71
2022/08/05 06:50:15;;;;;;;1.73;1.60;;;30.40;36.00;;;;;;5107084;27;45249;-71
2022/08/05 06:52:42;;;;;;;1.40;1.30;;;30.40;36.10;;;;;;5107316;27;45182;-71
2022/08/05 06:55:10;;;;;;;1.83;1.70;;;30.40;36.20;;;;;;5106886;27;45531;-71
2022/08/05 06:57:37;;;;;;;1.60;1.50;;;30.40;36.30;;;;;;5106825;27;45328;-71
2022/08/05 07:00:05;;;;;;;1.52;1.42;;;30.40;36.30;;;;;;5107049;27;45215;-71
2022/08/05 07:02:31;;;;;;;1.60;1.50;;;30.40;36.30;;;;;;5107240;27;45396;-71
2022/08/05 07:04:58;;;;;;;2.72;1.67;;;30.40;36.40;;;;;;5106925;27;45259;-71
2022/08/05 07:07:25;;;;;;;1.40;1.30;;;30.40;36.40;;;;;;5106883;27;45315;-71
2022/08/05 07:09:52;;;;;;;2.38;1.70;;;30.40;36.50;;;;;;5107096;27;45240;-71
2022/08/05 07:17:49;;;;;;;1.80;1.70;;;30.40;36.30;;;;;;5083716;28;45289;-71
2022/08/05 07:20:16;;;;;;;1.90;1.63;;;30.40;36.30;;;;;;5086154;28;45223;-71
2022/08/05 07:22:43;;;;;;;2.45;1.60;;;30.40;36.30;;;;;;5086348;28;45396;-71
2022/08/05 07:25:10;;;;;;;2.58;1.55;;;30.30;36.20;;;;;;5086046;28;45491;-71
2022/08/05 07:27:38;;;;;;;1.70;1.60;;;30.30;36.30;;;;;;5086162;28;45244;-71
2022/08/05 07:30:06;;;;;;;2.50;1.48;;;30.30;36.50;;;;;;5096553;27;45145;-71
2022/08/05 07:32:35;;;;;;;1.70;1.60;;;30.40;36.60;;;;;;5106718;27;45376;-71
2022/08/05 07:35:02;;;;;;;1.60;1.50;;;30.40;37.20;;;;;;5106341;27;46377;-71
2022/08/05 07:37:28;;;;;;;1.60;1.50;;;30.40;36.40;;;;;;5106641;27;45322;-71
2022/08/05 07:39:55;;;;;;;1.63;1.52;;;30.40;36.20;;;;;;5106119;27;45208;-71
2022/08/05 07:42:22;;;;;;;1.77;1.67;;;30.40;36.30;;;;;;5106518;27;45192;-70
2022/08/05 07:44:50;;;;;;;2.40;1.70;;;30.40;36.30;;;;;;5106158;27;46643;-71
2022/08/05 07:47:17;;;;;;;4.30;1.88;;;30.40;38.80;;;;;;5106862;27;45332;-70
2022/08/05 07:49:44;;;;;;;2.72;2.08;;;30.40;39.10;;;;;;5094922;27;45257;-71
2022/08/05 07:52:11;;;;;;;2.20;1.70;;;30.40;39.30;;;;;;5089528;28;45373;-71
2022/08/05 07:54:37;;;;;;;3.20;1.80;;;30.40;39.50;;;;;;5089313;28;45352;-71
2022/08/05 07:57:05;;;;;;;1.75;1.65;;;30.30;39.50;;;;;;5089259;28;45276;-71
2022/08/05 07:59:31;;;;;;;1.65;1.50;;;30.30;39.40;;;;;;5089141;28;45288;-71
2022/08/05 08:02:01;;;;;;;2.38;1.85;;;30.30;39.60;;;;;;5089599;28;45284;-70
2022/08/05 08:04:27;;;;;;;2.38;1.70;;;30.30;39.50;;;;;;5088978;28;46590;-71
2022/08/05 08:06:54;;;;;;;2.65;1.70;;;30.30;39.20;;;;;;5088928;28;45242;-71
2022/08/05 08:09:23;;;;;;;1.70;1.60;;;30.20;39.20;;;;;;5089247;28;45349;-71
2022/08/05 08:11:49;;;;;;;2.17;1.50;;;30.20;39.20;;;;;;5089318;28;45177;-71
2022/08/05 08:14:16;;;;;;;3.55;1.60;;;30.30;39.10;;;;;;5088921;28;46431;-71
2022/08/05 08:16:43;;;;;;;2.67;1.88;;;30.30;38.70;;;;;;5088740;28;45222;-71
2022/08/05 08:19:11;;;;;;;1.65;1.55;;;30.30;38.50;;;;;;5088937;28;45361;-70
2022/08/05 08:21:38;;;;;;;1.33;1.30;;;30.30;38.10;;;;;;5087372;28;45419;-70
2022/08/05 08:24:07;;;;;;;1.50;1.40;;;30.20;37.90;;;;;;5088676;28;46417;-71
2022/08/05 08:26:33;;;;;;;5.70;1.65;;;30.20;38.00;;;;;;5088769;28;45239;-71
2022/08/05 08:29:00;;;;;;;1.70;1.60;;;30.30;37.90;;;;;;5087266;28;45284;-71
2022/08/05 08:31:27;;;;;;;1.58;1.48;;;30.30;37.80;;;;;;5083556;28;45473;-71
2022/08/05 08:33:54;;;;;;;1.50;1.40;;;30.20;37.50;;;;;;5088665;28;46375;-71
2022/08/05 08:36:22;;;;;;;1.60;1.50;;;30.20;37.60;;;;;;5088494;28;45246;-71
2022/08/05 08:38:49;;;;;;;1.85;1.48;;;30.20;37.70;;;;;;5086043;28;45301;-71
2022/08/05 08:41:16;;;;;;;3.45;1.30;;;30.30;37.70;;;;;;5068117;28;45519;-71
2022/08/05 08:43:42;;;;;;;2.13;1.40;;;30.30;37.50;;;;;;5067769;28;46592;-71
2022/08/05 08:46:09;;;;;;;1.90;1.30;;;30.30;37.50;;;;;;5068072;28;45247;-71
2022/08/05 08:48:36;;;;;;;1.48;1.40;;;30.30;37.30;;;;;;5068077;28;45377;-71
2022/08/05 08:51:03;;;;;;;3.08;1.60;;;30.30;37.00;;;;;;5068349;28;45366;-71
2022/08/05 08:53:35;;;;;;;1.92;1.40;;;30.30;37.00;;;;;;5067486;28;46679;-70
2022/08/05 08:56:02;;;;;;;2.15;1.42;;;30.40;37.00;;;;;;5068065;28;45183;-71
2022/08/05 08:58:29;;;;;;;1.60;1.48;;;30.40;36.90;;;;;;5067383;28;45474;-71
2022/08/05 09:00:56;;;;;;;2.13;1.60;;;30.40;36.90;;;;;;5067986;28;45411;-70
2022/08/05 09:03:23;;;;;;;1.52;1.42;;;30.40;37.10;;;;;;5067876;28;46344;-71
2022/08/05 09:05:50;;;;;;;1.98;1.58;;;30.40;36.90;;;;;;5067946;28;45193;-71
2022/08/05 09:08:18;;;;;;;1.73;1.50;;;30.40;36.90;;;;;;5068100;28;45182;-71
2022/08/05 09:10:46;;;;;;;2.42;1.63;;;30.40;36.70;;;;;;5068066;28;45345;-71
2022/08/05 09:13:13;;;;;;;1.40;1.30;;;30.50;36.60;;;;;;5067414;28;45319;-71
2022/08/05 09:15:40;;;;;;;2.05;1.42;;;30.50;36.30;;;;;;5067362;28;45143;-70
2022/08/05 09:18:08;;;;;;;2.05;1.40;;;30.40;36.10;;;;;;5067885;28;45210;-71
2022/08/05 09:20:35;;;;;;;1.80;1.38;;;30.50;36.40;;;;;;5068139;28;45308;-71
2022/08/05 09:23:10;;;;;;;2.25;1.40;;;30.50;36.20;;;;;;5067256;28;45242;-71
2022/08/05 09:25:38;;;;;;;1.30;1.20;;;30.60;36.10;;;;;;5067654;28;45457;-71
2022/08/05 09:28:14;;;;;;;2.15;1.60;;;30.70;36.20;;;;;;5067903;28;45257;-71
2022/08/05 09:30:51;;;;;;;1.83;1.50;;;30.60;36.00;;;;;;5062989;28;45240;-70
2022/08/05 09:33:18;;;;;;;1.45;1.35;;;30.70;36.00;;;;;;5067079;28;45347;-70
2022/08/05 09:35:54;;;;;;;1.42;1.33;;;30.70;36.00;;;;;;5067643;28;45336;-71
2022/08/05 09:38:20;;;;;;;2.13;1.60;;;30.70;36.00;;;;;;5067480;28;45334;-70
2022/08/05 09:40:47;;;;;;;2.35;1.40;;;30.80;36.00;;;;;;5104073;27;45238;-70
2022/08/05 09:43:27;;;;;;;2.10;1.48;;;30.80;35.90;;;;;;5107868;27;45360;-70
2022/08/05 09:45:54;;;;;;;1.50;1.40;;;30.80;35.80;;;;;;5107585;27;45184;-70
2022/08/05 09:48:24;;;;;;;2.38;1.40;;;30.80;35.90;;;;;;5105111;27;45301;-71
2022/08/05 09:50:51;;;;;;;2.38;1.50;;;30.90;35.70;;;;;;5087941;28;45194;-71
2022/08/05 09:53:18;;;;;;;2.33;1.48;;;31.00;35.80;;;;;;5087049;28;45182;-71
2022/08/05 09:55:44;;;;;;;1.83;1.60;;;31.00;35.60;;;;;;5087291;28;45397;-72
2022/08/05 09:58:11;;;;;;;1.85;1.75;;;31.10;35.60;;;;;;5088056;28;45318;-72
2022/08/05 10:00:40;;;;;;;2.85;1.63;;;31.10;35.50;;;;;;5087446;28;45312;-72
2022/08/05 10:03:11;;;;;;;2.10;1.50;;;31.10;35.40;;;;;;5087265;28;46458;-71
2022/08/05 10:05:37;;;;;;;1.60;1.50;;;31.20;35.60;;;;;;5087563;28;45313;-71
2022/08/05 10:08:05;;;;;;;1.70;1.60;;;31.20;35.60;;;;;;5087503;28;45261;-72
2022/08/05 10:10:33;;;;;;;2.05;1.67;;;31.20;35.40;;;;;;5087429;27;45131;-72
2022/08/05 10:13:01;;;;;;;1.88;1.70;;;31.30;35.40;;;;;;5087199;28;45311;-72
2022/08/05 10:15:29;;;;;;;1.50;1.40;;;31.30;35.40;;;;;;5087303;28;45430;-72
2022/08/05 10:18:11;;;;;;;1.90;1.80;;;31.40;35.40;;;;;;5087468;28;45338;-72
2022/08/05 10:20:43;;;;;;;1.67;1.58;;;31.40;35.40;;;;;;5069353;28;45334;-72
2022/08/05 10:23:11;;;;;;;1.70;1.60;;;31.60;35.40;;;;;;5086422;28;45321;-73
2022/08/05 10:25:38;;;;;;;1.60;1.50;;;31.60;35.30;;;;;;5085264;28;45344;-72
2022/08/05 10:28:06;;;;;;;2.63;1.55;;;31.60;35.30;;;;;;5087205;28;45196;-72
2022/08/05 10:30:34;;;;;;;3.00;1.70;;;31.70;35.20;;;;;;5101656;27;45213;-71
2022/08/05 10:33:02;;;;;;;3.03;1.55;;;31.70;35.10;;;;;;5107166;27;47529;-72
2022/08/05 10:35:29;;;;;;;1.73;1.63;;;31.80;35.10;;;;;;5107318;27;45252;-72
2022/08/05 10:37:56;;;;;;;1.65;1.55;;;31.80;35.00;;;;;;5107253;27;45246;-71
2022/08/05 10:40:28;;;;;;;1.83;1.45;;;31.80;34.90;;;;;;5106805;27;45395;-72
2022/08/05 10:42:58;;;;;;;2.00;1.80;;;31.90;35.40;;;;;;5106441;27;46381;-73
2022/08/05 10:45:26;;;;;;;1.48;1.38;;;31.90;34.80;;;;;;5106619;27;45118;-73
2022/08/05 10:47:52;;;;;;;1.92;1.77;;;32.00;34.80;;;;;;5106826;27;45280;-72
2022/08/05 10:50:21;;;;;;;1.50;1.40;;;32.10;34.80;;;;;;5086846;28;45477;-73
2022/08/05 10:52:55;;;;;;;1.60;1.50;;;32.20;34.80;;;;;;5086436;28;45257;-72
2022/08/05 10:55:22;;;;;;;1.45;1.35;;;32.20;35.20;;;;;;5085741;28;45184;-72
2022/08/05 10:57:49;;;;;;;1.70;1.60;;;32.30;34.60;;;;;;5084700;28;45177;-71
2022/08/05 11:00:17;;;;;;;1.70;1.60;;;32.30;34.30;;;;;;5085047;28;45412;-70
2022/08/05 11:03:09;;;;;;;1.92;1.50;;;32.40;34.40;;;;;;5086025;28;45808;-71
2022/08/05 11:05:38;;;;;;;3.75;1.42;;;32.40;34.10;;;;;;5082895;28;45446;-72
2022/08/05 11:08:06;;;;;;;1.90;1.70;;;32.40;34.10;;;;;;5086037;28;45346;-71
2022/08/05 11:10:33;;;;;;;1.60;1.50;;;32.50;34.10;;;;;;5086852;28;45203;-71
2022/08/05 11:13:00;;;;;;;1.70;1.50;;;32.60;34.00;;;;;;5086310;28;45814;-72
2022/08/05 11:15:29;;;;;;;1.50;1.40;;;32.60;34.00;;;;;;5086448;28;45314;-73
2022/08/05 11:18:06;;;;;;;1.70;1.60;;;32.70;33.90;;;;;;5083899;28;45434;-72
2022/08/05 11:20:45;;;;;;;1.77;1.67;;;32.80;34.00;;;;;;5083676;28;45221;-72
2022/08/05 11:23:31;;;;;;;1.98;1.77;;;32.90;34.00;;;;;;5088604;28;46696;-72
2022/08/05 11:26:05;;;;;;;1.98;1.52;;;32.90;33.90;;;;;;5090008;28;45254;-72
2022/08/05 11:28:43;;;;;;;1.70;1.60;;;32.90;33.50;;;;;;5092448;27;45367;-73
2022/08/05 11:31:32;;;;;;;1.75;1.65;;;33.00;33.60;;;;;;5091119;27;45304;-72
2022/08/05 11:34:01;;;;;;;2.00;1.90;;;33.10;33.80;;;;;;5089532;28;47639;-73
2022/08/05 11:36:49;;;;;;;2.72;1.90;;;33.20;34.00;;;;;;5089934;28;45329;-71
2022/08/05 11:39:18;;;;;;;2.00;1.90;;;33.20;34.40;;;;;;5082529;28;45304;-72
2022/08/05 11:41:53;;;;;;;5.82;1.90;;;33.20;34.40;;;;;;5069786;28;45593;-72
2022/08/05 11:44:20;;;;;;;1.75;1.65;;;33.20;34.40;;;;;;5069052;28;46395;-72
2022/08/05 11:46:48;;;;;;;2.78;1.75;;;33.30;34.30;;;;;;5069027;28;45385;-72
2022/08/05 11:49:15;;;;;;;1.70;1.60;;;33.40;34.50;;;;;;5068943;28;45337;-72
2022/08/05 11:51:43;;;;;;;2.88;1.90;;;33.30;35.00;;;;;;5069778;28;45468;-72
2022/08/05 11:54:12;;;;;;;2.00;1.70;;;33.20;34.80;;;;;;5069252;28;45482;-72
2022/08/05 11:56:45;;;;;;;3.92;1.45;;;33.20;34.90;;;;;;5066623;28;45441;-72
2022/08/05 11:59:15;;;;;;;1.85;1.75;;;33.20;35.10;;;;;;5069437;28;45268;-73
2022/08/05 12:01:56;;;;;;;2.38;1.70;;;33.20;35.00;;;;;;5069425;28;45402;-73
2022/08/05 12:04:23;;;;;;;4.20;2.10;;;33.20;34.80;;;;;;5069146;28;46430;-72
2022/08/05 12:06:50;;;;;;;1.98;1.77;;;33.20;35.00;;;;;;5069071;28;45234;-73
2022/08/05 12:09:21;;;;;;;3.05;1.88;;;33.20;35.00;;;;;;5069525;28;45182;-73
2022/08/05 12:11:48;;;;;;;3.35;2.28;;;33.20;34.90;;;;;;5069724;28;45330;-73
2022/08/05 12:14:15;;;;;;;1.85;1.75;;;33.30;34.60;;;;;;5068998;28;45341;-73
2022/08/05 12:16:43;;;;;;;2.70;1.98;;;33.20;34.50;;;;;;5067960;28;45351;-73
2022/08/05 12:19:10;;;;;;;1.60;1.50;;;33.30;34.70;;;;;;5081106;28;45404;-73
2022/08/05 12:21:43;;;;;;;2.28;1.83;;;33.40;34.40;;;;;;5076372;28;45641;-73
2022/08/05 12:24:12;;;;;;;2.05;1.83;;;33.40;34.60;;;;;;5082711;28;46343;-73
2022/08/05 12:26:41;;;;;;;1.73;1.63;;;33.40;34.70;;;;;;5085536;28;45457;-73
2022/08/05 12:29:10;;;;;;;1.92;1.73;;;33.40;34.70;;;;;;5083976;28;45334;-73
2022/08/05 12:31:37;;;;;;;1.80;1.70;;;33.40;34.70;;;;;;5081645;28;46392;-72
2022/08/05 12:34:05;;;;;;;2.03;1.83;;;33.40;34.50;;;;;;5084133;27;45464;-73
2022/08/05 12:36:32;;;;;;;1.73;1.63;;;33.40;34.80;;;;;;5085013;28;45459;-73
2022/08/05 12:38:58;;;;;;;2.30;2.03;;;33.40;34.60;;;;;;5086878;27;45644;-73
2022/08/05 12:41:30;;;;;;;2.33;1.70;;;33.50;34.30;;;;;;5103063;27;45680;-73
2022/08/05 12:44:00;;;;;;;3.20;1.73;;;33.70;34.20;;;;;;5103930;27;46318;-73
2022/08/05 12:46:28;;;;;;;2.88;2.10;;;33.70;33.90;;;;;;5103127;27;45433;-73
2022/08/05 12:48:59;;;;;;;2.00;1.70;;;33.70;34.00;;;;;;5103073;27;45388;-73
2022/08/05 12:51:26;;;;;;;2.88;1.60;;;33.90;33.90;;;;;;5098162;27;45526;-73
2022/08/05 12:53:58;;;;;;;2.00;1.73;;;33.90;33.60;;;;;;5102108;27;45475;-73
2022/08/05 12:56:25;;;;;;;2.35;1.90;;;33.90;33.70;;;;;;5101605;27;45379;-73
2022/08/05 12:59:12;;;;;;;1.70;1.60;;;34.00;33.50;;;;;;5103264;27;45751;-73